Time;durP1;ratioP1;P1;durP2;ratioP2;P2;SDS_P1;SDS_P2;PMS_P1;PMS_P2;Temp;Humidity;BMP_temperature;BMP_pressure;BME280_temperature;BME280_humidity;BME280_pressure;Samples;Min_cycle;Max_cycle;Signal;HPM_P1;HPM_P2
2022/09/14 00:00:26;;;;;;;8.43;2.17;;;21.10;97.90;;;;;;5054922;28;20548;-75
2022/09/14 00:02:52;;;;;;;5.60;1.75;;;21.00;97.70;;;;;;5054546;28;20045;-75
2022/09/14 00:05:18;;;;;;;3.83;1.45;;;21.10;97.60;;;;;;5053049;28;20091;-76
2022/09/14 00:07:43;;;;;;;5.88;2.03;;;21.10;97.70;;;;;;5054234;28;20017;-75
2022/09/14 00:10:09;;;;;;;7.05;1.50;;;21.10;97.40;;;;;;5054319;28;20108;-76
2022/09/14 00:12:35;;;;;;;10.38;2.10;;;21.10;97.60;;;;;;5053690;28;20021;-76
2022/09/14 00:15:00;;;;;;;8.45;2.35;;;21.00;97.60;;;;;;5054224;28;20344;-76
2022/09/14 00:17:26;;;;;;;4.53;1.58;;;21.00;97.50;;;;;;5054075;28;20083;-76
2022/09/14 00:19:52;;;;;;;5.15;1.30;;;21.00;97.40;;;;;;5053881;28;20029;-75
2022/09/14 00:22:18;;;;;;;7.60;1.88;;;21.00;97.30;;;;;;5054120;28;20024;-75
2022/09/14 00:24:43;;;;;;;6.43;1.77;;;21.00;97.40;;;;;;5054024;28;20103;-76
2022/09/14 00:27:09;;;;;;;8.30;2.15;;;20.90;97.20;;;;;;5053630;28;20036;-74
2022/09/14 00:29:34;;;;;;;3.78;1.27;;;21.00;97.20;;;;;;5053706;28;20059;-77
2022/09/14 00:32:00;;;;;;;4.65;1.45;;;21.00;97.20;;;;;;5053808;28;20441;-77
2022/09/14 00:34:26;;;;;;;4.85;1.40;;;20.90;97.20;;;;;;5053840;28;20028;-77
2022/09/14 00:36:52;;;;;;;5.95;1.70;;;20.90;97.20;;;;;;5053583;28;20466;-76
2022/09/14 00:39:19;;;;;;;5.80;1.50;;;20.90;97.30;;;;;;5054153;28;20055;-76
2022/09/14 00:41:47;;;;;;;8.07;1.60;;;20.90;97.30;;;;;;5052996;28;20031;-76
2022/09/14 00:44:16;;;;;;;3.25;1.10;;;20.90;97.30;;;;;;5053594;28;20063;-77
2022/09/14 00:46:47;;;;;;;7.22;2.10;;;20.90;97.30;;;;;;5053326;28;20028;-76
2022/09/14 00:49:19;;;;;;;6.95;2.00;;;20.80;97.30;;;;;;5053490;28;20021;-75
2022/09/14 00:51:51;;;;;;;;;;;20.80;97.20;;;;;;5053638;28;20036;-76
2022/09/14 00:54:18;;;;;;;3.45;1.13;;;20.80;97.40;;;;;;5052137;28;19905;-76
2022/09/14 00:56:46;;;;;;;4.32;1.35;;;20.80;97.40;;;;;;5053052;28;20021;-76
2022/09/14 00:59:16;;;;;;;5.50;1.60;;;20.80;97.40;;;;;;5053358;28;20029;-76
2022/09/14 01:01:43;;;;;;;6.72;1.55;;;20.80;97.50;;;;;;5053134;28;20036;-76
2022/09/14 01:04:09;;;;;;;5.60;1.50;;;20.80;97.60;;;;;;5052104;28;20025;-76
2022/09/14 01:06:40;;;;;;;7.22;1.98;;;20.70;97.60;;;;;;5053102;28;20501;-76
2022/09/14 01:09:09;;;;;;;6.32;1.40;;;20.70;97.60;;;;;;5053487;28;20023;-75
2022/09/14 01:11:46;;;;;;;4.57;1.58;;;20.70;97.40;;;;;;5052993;28;20114;-77
2022/09/14 01:14:25;;;;;;;6.82;1.75;;;20.70;97.60;;;;;;5053556;28;20078;-76
2022/09/14 01:17:12;;;;;;;4.78;1.42;;;20.70;97.50;;;;;;5053626;28;20029;-76
2022/09/14 01:19:59;;;;;;;7.00;1.65;;;20.70;97.60;;;;;;5053286;28;20025;-76
2022/09/14 01:22:35;;;;;;;5.57;1.27;;;20.70;97.60;;;;;;5051142;28;20021;-77
2022/09/14 01:25:27;;;;;;;9.15;1.92;;;20.70;97.60;;;;;;5043383;28;20374;-76
2022/09/14 01:27:55;;;;;;;4.22;1.63;;;20.70;97.90;;;;;;5032069;28;20025;-75
2022/09/14 01:30:22;;;;;;;5.68;1.60;;;20.70;97.80;;;;;;5031986;28;20026;-75
2022/09/14 01:33:02;;;;;;;6.70;1.45;;;20.70;97.90;;;;;;5032623;28;20101;-76
2022/09/14 01:35:34;;;;;;;7.78;1.52;;;20.60;97.70;;;;;;5032767;28;20457;-75
2022/09/14 01:38:09;;;;;;;5.05;1.38;;;20.60;97.80;;;;;;5031361;28;20524;-75
2022/09/14 01:40:48;;;;;;;4.85;1.58;;;20.60;97.80;;;;;;5032812;28;20033;-77
2022/09/14 01:43:15;;;;;;;4.57;1.52;;;20.60;97.70;;;;;;5032948;28;20376;-76
2022/09/14 01:45:46;;;;;;;4.93;1.60;;;20.60;97.90;;;;;;5032828;28;20125;-76
2022/09/14 01:48:15;;;;;;;10.48;2.40;;;20.60;98.30;;;;;;5032863;28;20030;-77
2022/09/14 01:50:45;;;;;;;5.25;1.88;;;20.60;98.20;;;;;;5032930;28;20108;-76
2022/09/14 01:53:25;;;;;;;7.90;1.90;;;20.50;98.30;;;;;;5033232;28;20111;-75
2022/09/14 01:56:07;;;;;;;6.38;1.85;;;20.60;98.20;;;;;;5033084;28;20087;-76
2022/09/14 01:58:39;;;;;;;3.47;1.77;;;20.50;98.20;;;;;;5033229;28;20022;-77
2022/09/14 02:01:08;;;;;;;5.07;1.70;;;20.50;98.00;;;;;;5031475;28;20060;-77
2022/09/14 02:03:44;;;;;;;5.00;1.77;;;20.60;98.00;;;;;;5032724;28;20043;-78
2022/09/14 02:06:26;;;;;;;5.43;1.85;;;20.50;98.00;;;;;;5032887;28;20120;-76
2022/09/14 02:08:52;;;;;;;7.75;2.17;;;20.50;97.80;;;;;;5032939;28;20027;-78
2022/09/14 02:11:17;;;;;;;4.00;1.30;;;20.50;98.50;;;;;;5033434;28;20084;-74
2022/09/14 02:13:43;;;;;;;7.35;2.30;;;20.40;98.30;;;;;;5032431;28;20645;-78
2022/09/14 02:16:09;;;;;;;6.20;1.95;;;20.40;98.70;;;;;;5031550;28;20029;-76
2022/09/14 02:18:34;;;;;;;6.38;1.95;;;20.40;98.60;;;;;;5034257;28;20133;-76
2022/09/14 02:21:09;;;;;;;6.22;2.15;;;20.30;98.80;;;;;;5036990;28;20021;-76
2022/09/14 02:23:35;;;;;;;5.10;1.60;;;20.30;98.80;;;;;;5036449;28;20026;-76
2022/09/14 02:26:00;;;;;;;6.40;1.83;;;20.20;98.90;;;;;;5036231;28;20041;-76
2022/09/14 02:28:26;;;;;;;4.95;2.38;;;20.20;98.80;;;;;;5036201;28;20013;-76
2022/09/14 02:31:15;;;;;;;5.10;1.73;;;20.20;98.80;;;;;;5036479;28;20125;-78
2022/09/14 02:33:49;;;;;;;6.40;2.20;;;20.20;99.00;;;;;;5036560;28;20077;-77
2022/09/14 02:36:23;;;;;;;8.73;2.72;;;20.20;98.80;;;;;;5036379;28;20025;-77
2022/09/14 02:39:08;;;;;;;8.20;2.45;;;20.20;98.90;;;;;;5036216;28;20028;-75
2022/09/14 02:41:36;;;;;;;7.00;2.15;;;20.10;99.10;;;;;;5035309;28;20120;-75
2022/09/14 02:44:16;;;;;;;4.93;1.73;;;20.10;99.30;;;;;;5034575;28;20022;-73
2022/09/14 02:47:00;;;;;;;5.18;2.40;;;20.10;99.10;;;;;;5035330;28;20080;-74
2022/09/14 02:49:34;;;;;;;6.13;2.53;;;20.10;99.00;;;;;;5035895;28;20092;-75
2022/09/14 02:52:26;;;;;;;6.13;2.28;;;20.10;99.00;;;;;;5035621;28;20123;-75
2022/09/14 02:54:56;;;;;;;6.05;2.53;;;20.10;99.20;;;;;;5035335;28;20091;-74
2022/09/14 02:57:21;;;;;;;5.45;2.10;;;20.10;99.40;;;;;;5035651;28;20030;-74
2022/09/14 02:59:47;;;;;;;5.43;2.30;;;20.10;99.30;;;;;;5035557;28;20025;-77
2022/09/14 03:02:12;;;;;;;6.88;2.58;;;20.10;99.30;;;;;;5035815;28;20108;-76
2022/09/14 03:04:38;;;;;;;7.22;2.58;;;20.10;99.20;;;;;;5035461;28;20021;-77
2022/09/14 03:07:04;;;;;;;7.32;2.65;;;20.10;99.10;;;;;;5035384;28;20063;-77
2022/09/14 03:09:29;;;;;;;5.18;2.70;;;20.20;99.00;;;;;;5035507;28;20497;-78
2022/09/14 03:11:55;;;;;;;5.00;3.13;;;20.10;99.10;;;;;;5035530;28;20501;-77
2022/09/14 03:14:21;;;;;;;7.07;3.08;;;20.10;99.30;;;;;;5035637;28;20042;-74
2022/09/14 03:16:46;;;;;;;6.50;3.13;;;20.00;99.20;;;;;;5035345;28;20025;-74
2022/09/14 03:19:12;;;;;;;4.70;2.28;;;20.00;99.00;;;;;;5033985;28;20413;-74
2022/09/14 03:21:38;;;;;;;5.45;2.65;;;20.00;98.90;;;;;;5035118;28;20549;-75
2022/09/14 03:24:04;;;;;;;5.72;2.88;;;20.10;98.80;;;;;;5033878;28;20386;-74
2022/09/14 03:26:29;;;;;;;4.47;2.55;;;20.00;98.90;;;;;;5035397;28;20036;-75
2022/09/14 03:28:57;;;;;;;5.10;2.50;;;20.00;98.90;;;;;;5034817;28;20018;-78
2022/09/14 03:31:24;;;;;;;6.30;2.83;;;20.00;99.00;;;;;;5035466;28;20087;-75
2022/09/14 03:33:55;;;;;;;6.32;2.58;;;20.00;98.90;;;;;;5034721;28;20021;-75
2022/09/14 03:36:22;;;;;;;4.80;2.25;;;20.00;98.90;;;;;;5034925;28;20030;-75
2022/09/14 03:38:50;;;;;;;5.15;2.35;;;20.00;99.00;;;;;;5035059;28;20079;-76
2022/09/14 03:41:17;;;;;;;6.30;2.50;;;20.00;98.80;;;;;;5033443;28;20036;-76
2022/09/14 03:43:42;;;;;;;3.17;2.30;;;20.00;98.80;;;;;;5034912;28;20072;-75
2022/09/14 03:46:10;;;;;;;4.93;2.30;;;20.00;98.90;;;;;;5034713;28;20041;-76
2022/09/14 03:48:36;;;;;;;5.13;2.70;;;20.00;98.90;;;;;;5034710;28;20017;-77
2022/09/14 03:51:04;;;;;;;5.75;2.63;;;19.90;98.90;;;;;;5034551;28;20059;-77
2022/09/14 03:53:29;;;;;;;3.20;2.00;;;19.90;99.00;;;;;;5034748;28;20092;-77
2022/09/14 03:55:55;;;;;;;6.10;2.55;;;19.90;99.00;;;;;;5034560;28;20508;-78
2022/09/14 03:58:21;;;;;;;5.50;2.92;;;19.90;99.00;;;;;;5034546;28;20386;-78
2022/09/14 04:00:47;;;;;;;5.00;2.65;;;19.80;99.20;;;;;;5033142;28;20083;-78
2022/09/14 04:03:13;;;;;;;6.07;2.65;;;19.90;99.20;;;;;;5034149;28;20029;-75
2022/09/14 04:05:38;;;;;;;5.03;2.63;;;19.90;99.10;;;;;;5034234;28;20116;-77
2022/09/14 04:08:04;;;;;;;6.43;3.00;;;19.90;99.30;;;;;;5034276;28;20029;-77
2022/09/14 04:10:29;;;;;;;3.97;2.40;;;19.80;99.30;;;;;;5034478;28;20413;-76
2022/09/14 04:12:55;;;;;;;4.80;2.60;;;19.80;99.40;;;;;;5032922;28;20597;-75
2022/09/14 04:15:20;;;;;;;6.45;2.97;;;19.80;99.50;;;;;;5033036;28;20475;-75
2022/09/14 04:17:46;;;;;;;5.03;3.15;;;19.80;99.50;;;;;;5033893;28;20028;-76
2022/09/14 04:20:12;;;;;;;3.67;2.55;;;19.80;99.40;;;;;;5033849;28;20107;-75
2022/09/14 04:22:38;;;;;;;6.50;3.00;;;19.80;99.60;;;;;;5031947;28;20430;-78
2022/09/14 04:25:03;;;;;;;7.00;3.20;;;19.80;99.50;;;;;;5033648;28;20083;-77
2022/09/14 04:27:29;;;;;;;4.93;3.20;;;19.80;99.50;;;;;;5034208;28;20029;-76
2022/09/14 04:29:55;;;;;;;4.53;2.88;;;19.80;99.50;;;;;;5033772;28;20021;-77
2022/09/14 04:32:21;;;;;;;4.20;2.90;;;19.80;99.60;;;;;;5033650;28;20342;-77
2022/09/14 04:34:47;;;;;;;5.60;3.08;;;19.80;99.50;;;;;;5033925;28;20382;-78
2022/09/14 04:37:13;;;;;;;6.10;3.33;;;19.80;99.70;;;;;;5033008;28;20075;-78
2022/09/14 04:39:38;;;;;;;6.07;3.47;;;19.80;99.70;;;;;;5033626;28;20018;-76
2022/09/14 04:42:04;;;;;;;7.70;3.33;;;19.80;99.60;;;;;;5032890;28;20418;-78
2022/09/14 04:44:30;;;;;;;6.72;3.35;;;19.70;99.60;;;;;;5032424;28;20529;-79
2022/09/14 04:46:55;;;;;;;5.90;3.38;;;19.70;99.60;;;;;;5033210;28;20441;-78
2022/09/14 04:49:21;;;;;;;6.15;3.65;;;19.70;99.70;;;;;;5033661;28;20040;-78
2022/09/14 04:51:47;;;;;;;6.55;3.35;;;19.70;99.80;;;;;;5033172;28;20030;-77
2022/09/14 04:54:14;;;;;;;5.13;2.97;;;19.70;99.60;;;;;;5033137;28;20067;-78
2022/09/14 04:56:40;;;;;;;5.07;3.33;;;19.70;99.80;;;;;;5039227;28;20478;-77
2022/09/14 04:59:06;;;;;;;4.55;2.67;;;19.70;99.70;;;;;;5041699;28;20036;-79
2022/09/14 05:01:43;;;;;;;5.65;3.15;;;19.80;99.50;;;;;;5036397;28;20063;-78
2022/09/14 05:04:10;;;;;;;7.20;3.92;;;19.90;99.00;;;;;;5043594;28;20029;-78
2022/09/14 05:06:38;;;;;;;5.80;3.55;;;19.90;98.90;;;;;;5043165;28;20080;-75
2022/09/14 05:09:06;;;;;;;4.95;3.55;;;19.90;99.00;;;;;;5043290;28;20028;-81
2022/09/14 05:11:33;;;;;;;5.78;4.00;;;19.80;99.00;;;;;;5036533;28;20079;-81
2022/09/14 05:14:00;;;;;;;5.78;4.10;;;19.70;99.40;;;;;;5033357;28;20025;-80
2022/09/14 05:16:31;;;;;;;6.32;3.65;;;19.60;99.50;;;;;;5031799;28;20041;-80
2022/09/14 05:19:00;;;;;;;7.72;4.32;;;19.60;99.70;;;;;;5032854;28;20025;-79
2022/09/14 05:21:27;;;;;;;6.90;4.32;;;19.50;99.60;;;;;;5033223;28;20025;-80
2022/09/14 05:23:58;;;;;;;7.32;4.50;;;19.50;99.70;;;;;;5039346;28;20035;-71
2022/09/14 05:26:26;;;;;;;6.43;3.20;;;19.60;99.80;;;;;;5035684;28;20041;-76
2022/09/14 05:28:54;;;;;;;6.95;3.53;;;19.50;99.90;;;;;;5047749;28;20021;-79
2022/09/14 05:31:20;;;;;;;5.97;3.70;;;19.70;99.90;;;;;;5072240;28;20417;-79
2022/09/14 05:33:46;;;;;;;4.60;3.47;;;19.80;99.70;;;;;;5065975;28;20021;-78
2022/09/14 05:36:11;;;;;;;8.80;3.78;;;19.90;99.60;;;;;;5052475;28;20127;-78
2022/09/14 05:38:38;;;;;;;6.45;3.97;;;19.90;99.60;;;;;;5040764;28;20021;-79
2022/09/14 05:41:06;;;;;;;6.93;4.55;;;20.00;99.40;;;;;;5045660;28;20053;-78
2022/09/14 05:43:31;;;;;;;6.68;3.90;;;20.10;99.10;;;;;;5048564;28;20052;-73
2022/09/14 05:46:14;;;;;;;5.97;4.18;;;20.00;99.10;;;;;;5042018;28;20076;-74
2022/09/14 05:48:40;;;;;;;7.68;4.45;;;20.10;99.10;;;;;;5039148;28;20024;-73
2022/09/14 05:51:12;;;;;;;8.20;3.60;;;20.10;99.00;;;;;;5055538;28;20410;-78
2022/09/14 05:53:38;;;;;;;6.13;4.25;;;20.10;98.90;;;;;;5037375;28;20040;-75
2022/09/14 05:56:09;;;;;;;5.97;4.32;;;20.00;98.90;;;;;;5055991;28;20024;-78
2022/09/14 05:58:36;;;;;;;8.32;4.13;;;20.00;99.00;;;;;;5065448;28;20512;-78
2022/09/14 06:01:22;;;;;;;6.72;3.95;;;20.10;99.10;;;;;;5065562;28;20029;-77
2022/09/14 06:03:49;;;;;;;6.85;3.90;;;20.00;99.10;;;;;;5046778;28;20066;-79
2022/09/14 06:06:17;;;;;;;5.32;3.78;;;20.00;98.90;;;;;;5060120;28;20029;-79
2022/09/14 06:08:43;;;;;;;5.38;3.35;;;20.00;98.70;;;;;;5064986;28;20107;-78
2022/09/14 06:11:15;;;;;;;9.95;3.78;;;20.00;98.80;;;;;;5076450;28;20028;-79
2022/09/14 06:13:41;;;;;;;5.47;2.85;;;20.00;98.70;;;;;;5037641;28;20116;-77
2022/09/14 06:16:10;;;;;;;6.15;2.72;;;19.90;98.60;;;;;;5063507;28;20064;-79
2022/09/14 06:18:36;;;;;;;5.38;3.55;;;20.10;98.60;;;;;;5055624;28;20020;-78
2022/09/14 06:21:03;;;;;;;6.70;3.25;;;20.00;98.60;;;;;;5055686;28;20028;-80
2022/09/14 06:23:30;;;;;;;9.13;3.08;;;20.30;98.20;;;;;;5056080;28;20021;-80
2022/09/14 06:25:56;;;;;;;7.60;2.97;;;20.30;98.10;;;;;;5054343;28;20033;-79
2022/09/14 06:28:23;;;;;;;5.47;2.95;;;20.20;98.10;;;;;;5055299;28;20103;-79
2022/09/14 06:30:49;;;;;;;9.82;3.33;;;20.00;98.50;;;;;;5056023;28;20032;-80
2022/09/14 06:33:15;;;;;;;5.05;2.65;;;20.00;98.70;;;;;;5055862;28;20071;-79
2022/09/14 06:35:41;;;;;;;5.05;2.75;;;20.10;98.60;;;;;;5056137;28;20032;-78
2022/09/14 06:38:07;;;;;;;9.00;3.05;;;20.20;98.20;;;;;;5055941;28;20028;-79
2022/09/14 06:40:33;;;;;;;6.88;2.67;;;20.00;98.40;;;;;;5055595;28;20472;-78
2022/09/14 06:43:01;;;;;;;7.45;3.35;;;20.00;98.60;;;;;;5055645;28;20099;-77
2022/09/14 06:45:28;;;;;;;7.32;3.28;;;20.00;98.60;;;;;;5055942;28;20021;-79
2022/09/14 06:47:54;;;;;;;6.05;2.65;;;20.00;98.60;;;;;;5055789;28;20021;-79
2022/09/14 06:50:20;;;;;;;4.95;2.30;;;20.00;98.60;;;;;;5055662;28;20028;-78
2022/09/14 06:52:45;;;;;;;4.57;3.10;;;20.20;98.50;;;;;;5054306;28;20564;-78
2022/09/14 06:55:11;;;;;;;5.45;3.03;;;20.20;98.10;;;;;;5055583;28;20029;-80
2022/09/14 06:57:36;;;;;;;6.78;3.22;;;20.00;98.40;;;;;;5055377;28;20048;-79
2022/09/14 07:00:03;;;;;;;5.80;4.20;;;20.00;98.50;;;;;;5055602;28;20071;-79
2022/09/14 07:02:29;;;;;;;6.30;3.15;;;20.10;98.40;;;;;;5054291;28;20067;-78
2022/09/14 07:04:55;;;;;;;6.32;3.83;;;20.20;98.30;;;;;;5054981;28;20025;-80
2022/09/14 07:07:21;;;;;;;6.53;3.97;;;20.20;98.10;;;;;;5055306;28;20036;-79
2022/09/14 07:09:46;;;;;;;8.32;4.22;;;20.20;98.30;;;;;;5055364;28;20063;-79
2022/09/14 07:12:12;;;;;;;4.85;3.30;;;20.00;98.60;;;;;;5055046;28;20064;-79
2022/09/14 07:14:37;;;;;;;7.00;4.68;;;20.20;98.50;;;;;;5055298;28;20053;-79
2022/09/14 07:17:03;;;;;;;6.30;3.80;;;20.20;98.20;;;;;;5055211;28;20029;-78
2022/09/14 07:19:29;;;;;;;8.02;4.70;;;20.20;98.40;;;;;;5055059;28;20061;-79
2022/09/14 07:21:55;;;;;;;5.32;4.40;;;20.10;98.30;;;;;;5054938;28;20096;-79
2022/09/14 07:24:20;;;;;;;5.25;3.40;;;20.00;98.60;;;;;;5055080;28;20107;-78
2022/09/14 07:26:46;;;;;;;6.07;4.47;;;20.00;98.70;;;;;;5054679;28;20033;-79
2022/09/14 07:29:16;;;;;;;7.50;4.53;;;20.20;98.50;;;;;;5054975;28;20036;-80
2022/09/14 07:31:47;;;;;;;6.88;4.22;;;20.40;98.20;;;;;;5053611;28;20029;-78
2022/09/14 07:34:13;;;;;;;6.03;4.93;;;20.20;98.50;;;;;;5070302;28;20520;-78
2022/09/14 07:36:39;;;;;;;9.68;4.70;;;20.20;98.50;;;;;;5060284;28;20021;-79
2022/09/14 07:39:07;;;;;;;8.15;5.38;;;20.10;98.60;;;;;;5057583;28;20024;-77
2022/09/14 07:41:33;;;;;;;6.75;4.32;;;20.00;98.70;;;;;;5066026;28;20072;-78
2022/09/14 07:44:01;;;;;;;6.47;4.80;;;20.10;98.60;;;;;;5073932;28;20070;-79
2022/09/14 07:46:28;;;;;;;6.55;5.22;;;19.90;98.80;;;;;;5074456;28;20075;-80
2022/09/14 07:48:56;;;;;;;7.22;5.18;;;19.90;98.90;;;;;;5073495;28;20024;-79
2022/09/14 07:51:22;;;;;;;9.73;5.93;;;20.00;99.10;;;;;;5074552;28;20020;-78
2022/09/14 07:53:48;;;;;;;8.75;5.75;;;19.90;99.10;;;;;;5074684;28;20507;-79
2022/09/14 07:56:15;;;;;;;8.15;6.40;;;19.80;99.20;;;;;;5067579;28;20025;-79
2022/09/14 07:58:41;;;;;;;10.15;7.25;;;19.70;99.40;;;;;;5034712;28;20032;-79
2022/09/14 08:01:13;;;;;;;8.20;6.05;;;19.80;99.40;;;;;;5040773;28;20454;-80
2022/09/14 08:03:40;;;;;;;8.20;6.15;;;19.80;99.40;;;;;;5053043;28;20045;-77
2022/09/14 08:06:13;;;;;;;11.90;7.63;;;19.80;99.30;;;;;;5053090;28;20037;-80
2022/09/14 08:08:41;;;;;;;8.40;7.55;;;19.80;99.40;;;;;;5066000;28;20017;-79
2022/09/14 08:11:14;;;;;;;8.82;7.40;;;19.80;99.40;;;;;;5055898;28;20057;-78
2022/09/14 08:13:44;;;;;;;8.35;7.30;;;19.90;99.30;;;;;;5068399;28;20056;-77
2022/09/14 08:16:10;;;;;;;7.93;6.60;;;19.90;99.10;;;;;;5060659;28;20118;-80
2022/09/14 08:18:36;;;;;;;8.32;7.40;;;19.90;99.10;;;;;;5058310;28;20402;-80
2022/09/14 08:21:11;;;;;;;7.18;5.75;;;19.70;99.00;;;;;;5056374;28;20016;-77
2022/09/14 08:23:38;;;;;;;8.43;5.68;;;19.70;99.40;;;;;;5041660;28;20021;-81
2022/09/14 08:26:16;;;;;;;7.63;5.50;;;19.70;99.50;;;;;;5064977;28;20059;-80
2022/09/14 08:28:42;;;;;;;9.55;5.40;;;19.70;99.50;;;;;;5065551;28;20385;-75
2022/09/14 08:31:13;;;;;;;6.20;4.50;;;19.80;99.20;;;;;;5055400;28;20549;-80
2022/09/14 08:33:42;;;;;;;6.05;4.15;;;19.80;99.20;;;;;;5068558;28;20059;-77
2022/09/14 08:36:09;;;;;;;7.20;3.70;;;19.70;99.40;;;;;;5061265;28;20066;-77
2022/09/14 08:38:35;;;;;;;5.15;3.13;;;19.70;99.40;;;;;;5060285;28;20021;-79
2022/09/14 08:41:27;;;;;;;6.03;2.88;;;19.60;99.40;;;;;;5067316;28;20035;-80
2022/09/14 08:43:53;;;;;;;4.38;3.17;;;19.70;99.40;;;;;;5045603;28;20040;-79
2022/09/14 08:46:28;;;;;;;4.70;2.17;;;19.60;99.50;;;;;;5062431;28;20506;-77
2022/09/14 08:48:55;;;;;;;4.30;1.90;;;19.70;99.50;;;;;;5067389;28;20025;-79
2022/09/14 08:51:21;;;;;;;4.32;2.08;;;19.70;99.40;;;;;;5055172;28;20021;-80
2022/09/14 08:53:51;;;;;;;3.80;1.30;;;19.70;99.40;;;;;;5066160;28;20101;-80
2022/09/14 08:56:22;;;;;;;4.45;1.63;;;19.80;99.50;;;;;;5062133;28;20021;-79
2022/09/14 08:59:04;;;;;;;3.23;1.53;;;19.70;99.40;;;;;;5056962;28;20474;-81
2022/09/14 09:02:04;;;;;;;4.60;2.67;;;19.70;99.50;;;;;;5068182;28;20097;-79
2022/09/14 09:04:43;;;;;;;3.42;1.90;;;19.70;99.40;;;;;;5053305;28;20032;-79
2022/09/14 09:07:27;;;;;;;5.63;3.25;;;19.80;99.40;;;;;;5069077;28;20086;-81
2022/09/14 09:09:55;;;;;;;3.58;1.98;;;20.00;99.10;;;;;;5057592;28;20476;-79
2022/09/14 09:12:28;;;;;;;4.65;2.25;;;19.80;99.10;;;;;;5061685;28;20017;-81
2022/09/14 09:14:57;;;;;;;3.95;2.80;;;19.80;99.30;;;;;;5059842;28;20036;-79
2022/09/14 09:17:34;;;;;;;4.38;2.90;;;19.80;99.30;;;;;;5053980;28;20033;-78
2022/09/14 09:20:22;;;;;;;3.95;2.50;;;19.70;99.30;;;;;;5046877;28;20033;-81
2022/09/14 09:23:21;;;;;;;5.22;2.60;;;19.80;99.40;;;;;;5066434;28;20470;-79
2022/09/14 09:26:06;;;;;;;3.65;2.65;;;19.80;99.40;;;;;;5047448;28;20528;-81
2022/09/14 09:28:33;;;;;;;4.70;2.80;;;19.90;99.10;;;;;;5058627;28;20083;-80
2022/09/14 09:31:05;;;;;;;5.15;3.10;;;19.90;99.00;;;;;;5066356;28;20035;-78
2022/09/14 09:33:31;;;;;;;4.63;2.97;;;19.80;99.00;;;;;;5040520;28;20485;-79
2022/09/14 09:35:58;;;;;;;5.97;3.10;;;19.70;99.10;;;;;;5064379;28;20074;-76
2022/09/14 09:38:26;;;;;;;3.45;2.33;;;19.70;99.20;;;;;;5063147;28;20047;-78
2022/09/14 09:40:56;;;;;;;3.88;2.85;;;19.60;99.50;;;;;;5055531;28;20025;-76
2022/09/14 09:43:22;;;;;;;5.45;2.53;;;19.60;99.70;;;;;;5068439;28;20057;-81
2022/09/14 09:46:02;;;;;;;5.00;2.30;;;19.60;99.90;;;;;;5058072;28;20056;-81
2022/09/14 09:48:37;;;;;;;2.88;2.35;;;19.60;99.80;;;;;;5059721;28;20087;-80
2022/09/14 09:51:10;;;;;;;4.88;2.28;;;19.70;99.70;;;;;;5067119;28;20024;-80
2022/09/14 09:53:49;;;;;;;5.35;2.50;;;19.70;99.60;;;;;;5051514;28;20086;-80
2022/09/14 09:56:50;;;;;;;4.88;2.40;;;19.60;99.70;;;;;;5060738;28;20032;-81
2022/09/14 09:59:36;;;;;;;2.60;2.17;;;19.50;99.90;;;;;;5035225;28;20079;-75
2022/09/14 10:02:20;;;;;;;5.13;2.33;;;19.70;99.70;;;;;;5059246;28;20079;-79
2022/09/14 10:05:04;;;;;;;3.90;2.80;;;19.90;99.20;;;;;;5066137;28;20016;-82
2022/09/14 10:07:42;;;;;;;2.67;2.35;;;20.00;99.00;;;;;;5040855;28;20128;-83
2022/09/14 10:10:09;;;;;;;4.03;2.72;;;20.10;98.80;;;;;;5061628;28;20033;-82
2022/09/14 10:12:38;;;;;;;4.78;3.17;;;20.20;98.60;;;;;;5064628;28;20489;-82
2022/09/14 10:15:24;;;;;;;2.95;2.70;;;20.20;98.60;;;;;;5054883;28;20374;-79
2022/09/14 10:18:12;;;;;;;3.17;2.88;;;19.80;99.30;;;;;;5063377;28;20032;-80
2022/09/14 10:20:43;;;;;;;3.10;2.83;;;19.60;99.90;;;;;;5063555;28;20021;-82
2022/09/14 10:23:18;;;;;;;3.95;3.33;;;19.70;99.80;;;;;;5051290;28;20120;-76
2022/09/14 10:26:13;;;;;;;3.97;3.58;;;19.80;99.70;;;;;;5054813;28;20493;-79
2022/09/14 10:28:49;;;;;;;3.60;3.15;;;20.00;99.40;;;;;;5052438;28;20025;-77
2022/09/14 10:31:17;;;;;;;3.45;3.15;;;19.80;99.80;;;;;;5043097;28;20020;-77
2022/09/14 10:33:45;;;;;;;4.45;3.00;;;19.70;99.80;;;;;;5040902;28;20100;-79
2022/09/14 10:36:34;;;;;;;3.17;2.97;;;19.60;99.90;;;;;;5034990;28;20029;-78
2022/09/14 10:39:19;;;;;;;4.15;3.80;;;19.60;99.90;;;;;;5042665;28;20479;-79
2022/09/14 10:41:52;;;;;;;4.07;3.70;;;19.60;99.90;;;;;;5046453;28;20021;-78
2022/09/14 10:44:42;;;;;;;4.82;4.43;;;19.60;99.90;;;;;;5044055;28;20382;-81
2022/09/14 10:47:23;;;;;;;4.65;4.25;;;19.60;99.90;;;;;;5049648;28;20040;-78
2022/09/14 10:50:23;;;;;;;6.30;5.00;;;19.50;99.90;;;;;;5047078;28;20021;-79
2022/09/14 10:52:58;;;;;;;7.95;5.85;;;19.50;99.90;;;;;;5034386;28;20052;-79
2022/09/14 10:55:42;;;;;;;6.18;4.75;;;19.70;99.90;;;;;;5042481;28;20024;-80
2022/09/14 10:58:54;;;;;;;5.68;3.90;;;19.70;99.70;;;;;;5062709;28;20054;-80
2022/09/14 11:01:40;;;;;;;4.70;3.70;;;19.60;99.90;;;;;;5055541;28;20021;-78
2022/09/14 11:04:44;;;;;;;5.40;4.30;;;19.60;99.80;;;;;;5063450;28;20028;-81
2022/09/14 11:07:32;;;;;;;5.60;3.30;;;19.60;99.90;;;;;;5046467;28;20039;-79
2022/09/14 11:10:04;;;;;;;3.58;2.60;;;19.50;99.90;;;;;;5039025;28;20029;-81
2022/09/14 11:12:53;;;;;;;4.78;2.97;;;19.50;99.90;;;;;;5043289;28;20432;-77
2022/09/14 11:15:40;;;;;;;2.92;2.17;;;19.50;99.90;;;;;;5044198;28;20040;-79
2022/09/14 11:18:09;;;;;;;2.67;1.90;;;19.40;99.30;;;;;;5036541;28;20048;-76
2022/09/14 11:20:59;;;;;;;3.70;1.95;;;19.30;99.40;;;;;;5038600;28;20034;-80
2022/09/14 11:23:55;;;;;;;5.00;1.75;;;19.40;99.30;;;;;;5039809;28;20079;-77
2022/09/14 11:26:30;;;;;;;4.50;1.40;;;19.40;99.20;;;;;;5043495;28;20041;-79
2022/09/14 11:29:10;;;;;;;2.53;1.08;;;19.40;99.00;;;;;;5054798;28;20028;-78
2022/09/14 11:31:50;;;;;;;2.95;1.13;;;19.30;98.70;;;;;;5042230;28;20378;-79
2022/09/14 11:34:56;;;;;;;3.00;1.42;;;19.20;99.10;;;;;;5032793;28;20405;-81
2022/09/14 11:37:44;;;;;;;2.65;1.33;;;19.20;98.90;;;;;;5015168;28;20049;-81
2022/09/14 11:40:19;;;;;;;2.35;1.05;;;19.00;99.00;;;;;;5051612;28;20040;-78
2022/09/14 11:42:56;;;;;;;2.95;1.10;;;18.90;99.00;;;;;;5052722;28;20104;-81
2022/09/14 11:45:49;;;;;;;1.92;0.80;;;18.80;99.20;;;;;;5042337;28;20025;-81
2022/09/14 11:48:42;;;;;;;2.25;0.93;;;18.70;99.30;;;;;;5046652;28;20044;-81
2022/09/14 11:51:16;;;;;;;2.22;1.00;;;18.80;99.10;;;;;;5041147;28;20069;-81
2022/09/14 11:53:43;;;;;;;3.38;0.90;;;18.70;98.90;;;;;;5043088;28;20021;-79
2022/09/14 11:56:30;;;;;;;1.40;0.70;;;18.70;99.20;;;;;;5031321;28;20119;-79
2022/09/14 11:59:03;;;;;;;4.80;1.00;;;18.80;98.80;;;;;;5035837;28;20092;-72
2022/09/14 12:01:37;;;;;;;2.47;0.80;;;18.70;99.00;;;;;;5037967;28;20466;-75
2022/09/14 12:04:11;;;;;;;2.70;1.17;;;18.80;99.30;;;;;;5047309;28;20111;-76
2022/09/14 12:06:36;;;;;;;2.83;1.00;;;18.90;99.30;;;;;;5033397;28;20045;-80
2022/09/14 12:09:20;;;;;;;2.95;1.20;;;18.90;99.20;;;;;;5031996;28;20429;-81
2022/09/14 12:12:28;;;;;;;4.40;1.08;;;18.80;99.30;;;;;;5041007;28;20094;-81
2022/09/14 12:14:58;;;;;;;2.90;1.27;;;18.70;99.60;;;;;;5025559;28;20047;-77
2022/09/14 12:17:33;;;;;;;4.35;1.40;;;18.70;99.60;;;;;;5040234;28;20147;-80
2022/09/14 12:20:37;;;;;;;2.83;1.40;;;18.70;99.60;;;;;;5049858;28;20044;-76
2022/09/14 12:23:23;;;;;;;2.92;1.45;;;18.80;99.50;;;;;;5037543;28;20390;-79
2022/09/14 12:26:21;;;;;;;4.32;1.42;;;18.80;99.40;;;;;;5042520;28;20069;-78
2022/09/14 12:28:49;;;;;;;3.15;1.30;;;18.70;99.50;;;;;;5041750;28;20057;-79
2022/09/14 12:31:42;;;;;;;3.50;1.40;;;18.80;99.50;;;;;;5053397;28;20036;-76
2022/09/14 12:34:23;;;;;;;1.95;1.00;;;18.90;99.50;;;;;;5039583;28;20022;-78
2022/09/14 12:36:49;;;;;;;3.03;1.48;;;18.90;99.40;;;;;;5040631;28;20032;-79
2022/09/14 12:39:32;;;;;;;2.53;1.35;;;18.90;99.30;;;;;;5040830;28;20409;-79
2022/09/14 12:42:17;;;;;;;2.83;1.60;;;18.90;99.50;;;;;;5042398;28;20060;-74
2022/09/14 12:44:43;;;;;;;3.15;1.75;;;19.00;99.40;;;;;;5036311;28;20445;-80
2022/09/14 12:47:24;;;;;;;2.92;2.20;;;19.20;99.10;;;;;;5039309;28;20474;-81
2022/09/14 12:49:52;;;;;;;;;;;19.20;98.90;;;;;;5036095;28;20045;-77
2022/09/14 12:52:32;;;;;;;4.35;1.77;;;19.30;98.70;;;;;;5039653;28;20269;-84
2022/09/14 12:55:13;;;;;;;3.20;1.58;;;19.30;98.60;;;;;;5047953;28;20029;-81
2022/09/14 12:57:50;;;;;;;4.03;1.55;;;19.30;98.60;;;;;;5051899;28;20035;-81
2022/09/14 13:00:18;;;;;;;1.83;1.55;;;19.20;98.60;;;;;;5055793;28;20035;-80
2022/09/14 13:02:59;;;;;;;2.00;1.60;;;19.10;98.70;;;;;;5049094;28;20051;-87
2022/09/14 13:05:28;;;;;;;2.25;1.77;;;19.10;98.90;;;;;;5052040;28;20040;-85
2022/09/14 13:07:54;;;;;;;2.58;1.73;;;19.10;99.10;;;;;;5039685;28;20037;-84
2022/09/14 13:10:30;;;;;;;2.50;2.25;;;19.10;99.30;;;;;;5056135;28;20107;-80
2022/09/14 13:12:58;;;;;;;3.53;2.50;;;19.10;99.40;;;;;;5071823;28;20038;-76